Terminal Aerodrome Forecast
Issued by NWS

Home | Current Version | Previous Version | Text Only | Print | Product List | Glossary On
Versions: 1 2 3 4 5 6 7 8 9 10 11 12 13 14 15
000
FTUS46 KMTR 281100
TAFOAK
TAF
KOAK 281120Z 2812/2918 25005KT P6SM OVC007
     FM281800 26008KT P6SM BKN009 BKN012
     FM281900 26010KT P6SM SCT010 BKN014
     FM282000 27011KT P6SM FEW012 SCT020
     FM282200 27015G20KT P6SM FEW020 SCT250
     FM290400 26010G15KT P6SM FEW006 BKN009=

USA.gov is the U.S. government's official web portal to all federal, state and local government web resources and services.